Time;durP1;ratioP1;P1;durP2;ratioP2;P2;SDS_P1;SDS_P2;PMS_P1;PMS_P2;Temp;Humidity;BMP_temperature;BMP_pressure;BME280_temperature;BME280_humidity;BME280_pressure;Samples;Min_cycle;Max_cycle;Signal;HPM_P1;HPM_P2
2023/07/21 00:01:03;;;;;;;7.80;2.50;;;;;;;26.66;58.76;97797.97;5111077;28;20574;-56
2023/07/21 00:03:30;;;;;;;4.72;2.05;;;;;;;26.57;59.57;97782.53;5111561;28;20262;-56
2023/07/21 00:05:56;;;;;;;5.55;2.67;;;;;;;26.56;59.58;97776.44;5111609;28;20190;-56
2023/07/21 00:08:23;;;;;;;3.58;2.50;;;;;;;26.58;60.64;97798.25;5111473;28;20258;-56
2023/07/21 00:10:48;;;;;;;6.10;2.75;;;;;;;26.50;59.41;97790.56;5111510;28;20214;-56
2023/07/21 00:13:14;;;;;;;6.55;2.50;;;;;;;26.37;59.55;97782.72;5111311;28;20717;-56
2023/07/21 00:15:39;;;;;;;5.03;2.13;;;;;;;26.26;60.26;97802.03;5111304;28;20183;-56
2023/07/21 00:18:05;;;;;;;4.18;2.20;;;;;;;26.00;60.65;97780.25;5111007;28;20175;-56
2023/07/21 00:20:30;;;;;;;4.88;2.50;;;;;;;26.12;61.01;97795.22;5111186;28;20175;-56
2023/07/21 00:22:56;;;;;;;3.28;2.17;;;;;;;26.05;60.97;97794.47;5111204;28;20246;-56
2023/07/21 00:25:21;;;;;;;6.50;2.92;;;;;;;25.98;61.49;97804.31;5111224;28;20207;-56
2023/07/21 00:27:47;;;;;;;3.80;2.22;;;;;;;25.80;61.74;97788.31;5129055;28;20293;-56
2023/07/21 00:30:13;;;;;;;5.32;2.60;;;;;;;25.82;61.98;97802.16;5129461;28;20625;-56
2023/07/21 00:32:40;;;;;;;3.70;2.00;;;;;;;25.95;61.69;97799.44;5129210;28;20214;-56
2023/07/21 00:35:08;;;;;;;4.53;2.50;;;;;;;25.67;63.28;97785.75;5129269;28;20679;-56
2023/07/21 00:37:37;;;;;;;4.13;2.20;;;;;;;25.18;64.99;97756.50;5129350;28;20187;-56
2023/07/21 00:40:04;;;;;;;5.88;2.20;;;;;;;25.31;65.47;97777.63;5129266;28;20261;-56
2023/07/21 00:42:30;;;;;;;3.40;2.25;;;;;;;25.13;66.17;97769.56;5129048;28;20221;-56
2023/07/21 00:44:56;;;;;;;4.60;2.70;;;;;;;25.27;66.60;97792.34;5129215;28;20260;-56
2023/07/21 00:47:25;;;;;;;5.57;2.35;;;;;;;24.92;67.90;97761.94;5129085;28;20191;-56
2023/07/21 00:49:52;;;;;;;8.18;2.85;;;;;;;25.17;67.57;97793.75;5129129;28;20612;-56
2023/07/21 00:52:18;;;;;;;5.28;2.40;;;;;;;25.08;64.87;97757.97;5129000;28;20672;-56
2023/07/21 00:54:45;;;;;;;4.22;2.78;;;;;;;25.06;65.58;97758.19;5129012;28;20174;-56
2023/07/21 00:57:11;;;;;;;3.72;2.35;;;;;;;25.24;64.54;97763.63;5129129;28;20175;-56
2023/07/21 00:59:37;;;;;;;3.63;2.35;;;;;;;25.42;64.54;97776.94;5113302;28;20251;-56
2023/07/21 01:02:03;;;;;;;6.80;2.28;;;;;;;25.29;65.40;97753.19;5111008;28;20203;-56
2023/07/21 01:04:30;;;;;;;5.85;2.78;;;;;;;25.30;66.88;97794.53;5110890;28;20175;-56
2023/07/21 01:06:58;;;;;;;3.58;2.47;;;;;;;24.95;68.04;97771.28;5110599;28;20195;-56
2023/07/21 01:09:25;;;;;;;5.72;2.67;;;;;;;24.87;69.83;97793.50;5110953;28;20168;-56
2023/07/21 01:11:51;;;;;;;5.55;2.67;;;;;;;24.82;70.45;97792.50;5113418;28;20179;-56
2023/07/21 01:14:17;;;;;;;3.85;2.67;;;;;;;24.82;70.67;97797.78;5114294;27;20641;-56
2023/07/21 01:16:45;;;;;;;8.40;3.00;;;;;;;24.48;71.63;97759.19;5114845;28;20222;-55
2023/07/21 01:19:15;;;;;;;4.60;3.00;;;;;;;24.49;71.26;97765.31;5114533;28;20284;-56
2023/07/21 01:21:48;;;;;;;6.03;2.83;;;;;;;24.58;72.29;97795.03;5114447;28;20210;-56
2023/07/21 01:24:29;;;;;;;5.25;2.75;;;;;;;24.76;69.13;97775.63;5114815;28;20174;-56
2023/07/21 01:26:57;;;;;;;5.68;2.92;;;;;;;24.99;68.47;97783.06;5114528;28;20270;-56
2023/07/21 01:29:25;;;;;;;6.30;2.97;;;;;;;24.66;70.06;97767.31;5114100;28;20218;-56
2023/07/21 01:31:53;;;;;;;4.68;2.70;;;;;;;24.72;69.92;97774.41;5114251;28;20179;-56
2023/07/21 01:34:19;;;;;;;4.30;2.28;;;;;;;24.89;67.17;97775.56;5114120;28;20248;-56
2023/07/21 01:36:45;;;;;;;6.43;2.38;;;;;;;25.00;66.65;97800.56;5114073;28;20658;-56
2023/07/21 01:39:12;;;;;;;3.35;2.60;;;;;;;25.10;66.35;97809.69;5114175;28;20207;-56
2023/07/21 01:41:38;;;;;;;5.82;2.70;;;;;;;25.03;65.13;97790.38;5113987;28;20207;-56
2023/07/21 01:44:04;;;;;;;6.60;3.00;;;;;;;25.10;65.88;97785.88;5114009;28;20341;-56
2023/07/21 01:46:30;;;;;;;5.15;2.95;;;;;;;25.05;66.65;97764.50;5113890;28;20632;-56
2023/07/21 01:48:55;;;;;;;4.80;2.72;;;;;;;25.25;67.07;97802.31;5113895;28;20175;-56
2023/07/21 01:51:22;;;;;;;6.50;3.33;;;;;;;25.37;66.98;97810.41;5113829;27;20244;-56
2023/07/21 01:54:05;;;;;;;7.38;3.60;;;;;;;25.19;67.67;97797.84;5113907;27;20183;-56
2023/07/21 01:56:44;;;;;;;6.68;3.40;;;;;;;24.96;68.12;97791.44;5113749;28;20175;-56
2023/07/21 01:59:11;;;;;;;6.53;3.30;;;;;;;24.85;68.72;97795.53;5113536;28;20254;-55
2023/07/21 02:01:38;;;;;;;6.07;3.25;;;;;;;24.90;68.97;97797.56;5113634;28;20199;-56
2023/07/21 02:04:04;;;;;;;11.77;3.45;;;;;;;25.02;68.94;97815.22;5113738;28;20254;-55
2023/07/21 02:06:31;;;;;;;6.47;3.90;;;;;;;24.85;68.05;97789.44;5113579;28;20198;-55
2023/07/21 02:08:56;;;;;;;5.95;3.72;;;;;;;24.94;69.07;97804.06;5113544;27;20172;-55
2023/07/21 02:11:22;;;;;;;5.68;3.25;;;;;;;25.08;67.79;97830.25;5113225;28;20554;-55
2023/07/21 02:13:48;;;;;;;5.95;3.28;;;;;;;25.04;67.66;97822.97;5113463;28;20641;-55
2023/07/21 02:16:13;;;;;;;7.20;3.58;;;;;;;24.95;68.33;97819.72;5113739;28;20186;-56
2023/07/21 02:18:41;;;;;;;7.55;3.30;;;;;;;24.97;68.48;97815.03;5113622;28;20193;-56
2023/07/21 02:21:06;;;;;;;3.85;3.35;;;;;;;25.01;69.26;97837.44;5112914;28;20175;-55
2023/07/21 02:23:31;;;;;;;8.13;4.00;;;;;;;24.93;69.92;97842.97;5113111;28;20172;-56
2023/07/21 02:25:58;;;;;;;8.55;3.60;;;;;;;24.53;70.27;97796.44;5113095;28;20175;-56
2023/07/21 02:28:24;;;;;;;3.92;2.92;;;;;;;24.35;71.00;97798.91;5113135;28;20258;-56
2023/07/21 02:31:02;;;;;;;5.05;3.47;;;;;;;24.58;70.65;97833.69;5113064;28;20271;-55
2023/07/21 02:33:29;;;;;;;5.20;2.88;;;;;;;24.56;69.85;97833.03;5112981;28;20179;-56
2023/07/21 02:35:55;;;;;;;5.28;2.50;;;;;;;24.56;68.52;97822.44;5113038;28;20618;-56
2023/07/21 02:38:20;;;;;;;7.88;2.80;;;;;;;24.73;68.67;97846.69;5112652;28;20649;-56
2023/07/21 02:40:46;;;;;;;6.80;3.50;;;;;;;24.71;69.13;97849.53;5112887;28;20221;-56
2023/07/21 02:43:12;;;;;;;5.70;3.22;;;;;;;24.54;70.15;97828.97;5112937;28;20195;-56
2023/07/21 02:45:38;;;;;;;6.93;3.60;;;;;;;24.63;70.67;97838.34;5112759;28;20221;-57
2023/07/21 02:48:06;;;;;;;4.70;3.10;;;;;;;24.58;71.29;97849.56;5112981;28;20209;-56
2023/07/21 02:50:33;;;;;;;6.60;3.08;;;;;;;24.40;70.18;97825.56;5112623;28;20171;-57
2023/07/21 02:52:58;;;;;;;6.93;3.08;;;;;;;24.51;69.90;97856.69;5113024;27;20197;-57
2023/07/21 02:55:24;;;;;;;5.95;3.00;;;;;;;24.27;70.20;97828.19;5112561;28;20701;-57
2023/07/21 02:57:49;;;;;;;5.45;3.30;;;;;;;24.23;70.77;97826.16;5112559;28;20586;-57
2023/07/21 03:00:15;;;;;;;4.50;2.95;;;;;;;24.42;70.46;97857.91;5112894;28;20682;-57
2023/07/21 03:02:42;;;;;;;5.80;2.95;;;;;;;24.37;70.15;97849.75;5112481;28;20290;-57
2023/07/21 03:05:08;;;;;;;5.47;3.00;;;;;;;24.30;69.77;97827.81;5112353;28;20178;-57
2023/07/21 03:07:34;;;;;;;8.63;3.50;;;;;;;24.27;70.98;97830.84;5130376;27;20186;-57
2023/07/21 03:10:00;;;;;;;3.78;3.05;;;;;;;24.39;71.21;97871.50;5130485;27;20633;-57
2023/07/21 03:12:25;;;;;;;6.78;3.47;;;;;;;24.22;71.14;97843.06;5130270;27;20272;-57
2023/07/21 03:14:51;;;;;;;6.20;2.85;;;;;;;24.32;70.82;97856.69;5130246;27;20660;-56
2023/07/21 03:17:16;;;;;;;6.85;3.45;;;;;;;24.41;71.23;97874.78;5130217;27;20182;-57
2023/07/21 03:19:42;;;;;;;5.22;3.20;;;;;;;24.27;71.80;97867.84;5130278;27;20209;-57
2023/07/21 03:22:07;;;;;;;10.70;3.58;;;;;;;24.04;71.81;97846.28;5130064;27;20210;-57
2023/07/21 03:24:34;;;;;;;5.07;3.05;;;;;;;24.22;71.47;97861.56;5130343;27;20557;-56
2023/07/21 03:27:01;;;;;;;8.98;3.60;;;;;;;24.15;71.54;97835.13;5130028;27;20214;-57
2023/07/21 03:29:26;;;;;;;5.57;3.75;;;;;;;24.33;71.90;97874.97;5129980;27;20679;-57
2023/07/21 03:31:52;;;;;;;5.60;3.55;;;;;;;24.23;71.52;97842.88;5130090;27;20277;-57
2023/07/21 03:34:17;;;;;;;5.10;2.90;;;;;;;24.32;70.90;97859.34;5129336;27;20277;-57
2023/07/21 03:36:43;;;;;;;7.05;2.85;;;;;;;24.21;69.90;97844.88;5129787;27;20186;-57
2023/07/21 03:39:08;;;;;;;6.65;2.92;;;;;;;24.30;69.52;97856.88;5116102;27;20193;-57
2023/07/21 03:41:33;;;;;;;4.20;2.50;;;;;;;24.36;69.27;97863.19;5111664;28;20305;-56
2023/07/21 03:44:00;;;;;;;4.63;2.60;;;;;;;24.28;69.30;97851.00;5111728;28;20186;-56
2023/07/21 03:46:25;;;;;;;4.75;2.60;;;;;;;24.46;69.27;97864.41;5111680;28;20167;-57
2023/07/21 03:48:51;;;;;;;5.10;2.70;;;;;;;24.63;68.79;97875.41;5111634;28;20179;-57
2023/07/21 03:51:16;;;;;;;3.13;2.53;;;;;;;24.65;69.15;97883.94;5111580;28;20186;-57
2023/07/21 03:53:42;;;;;;;6.25;3.25;;;;;;;24.52;69.34;97866.22;5111639;28;20186;-56
2023/07/21 03:56:07;;;;;;;6.85;3.03;;;;;;;24.69;69.44;97883.34;5108902;28;20221;-56
2023/07/21 03:58:33;;;;;;;2.88;2.67;;;;;;;24.48;68.75;97851.78;5109022;28;20715;-56
2023/07/21 04:00:59;;;;;;;3.70;2.80;;;;;;;24.63;68.62;97860.34;5108851;28;20612;-56
2023/07/21 04:03:25;;;;;;;3.85;2.78;;;;;;;24.63;69.00;97870.94;5109150;28;20191;-56
2023/07/21 04:05:53;;;;;;;5.93;3.33;;;;;;;24.53;69.55;97862.56;5109037;28;20602;-56
2023/07/21 04:08:18;;;;;;;6.10;2.90;;;;;;;24.71;69.93;97894.53;5109091;28;20182;-56
2023/07/21 04:10:44;;;;;;;7.18;3.30;;;;;;;24.79;69.93;97886.34;5109156;28;20617;-56
2023/07/21 04:13:10;;;;;;;5.30;3.17;;;;;;;24.97;68.91;97891.81;5109113;28;20561;-56
2023/07/21 04:15:36;;;;;;;7.43;3.70;;;;;;;24.91;68.67;97863.50;5109020;28;20335;-56
2023/07/21 04:18:01;;;;;;;7.80;3.53;;;;;;;25.23;68.28;97915.56;5109143;28;20182;-56
2023/07/21 04:20:28;;;;;;;8.80;3.63;;;;;;;25.05;68.44;97880.19;5108952;28;20179;-57
2023/07/21 04:22:54;;;;;;;5.32;3.88;;;;;;;25.11;68.56;97892.59;5108895;28;20254;-56
2023/07/21 04:25:20;;;;;;;5.18;2.95;;;;;;;25.05;69.26;97912.78;5108892;28;20211;-56
2023/07/21 04:27:50;;;;;;;4.80;3.08;;;;;;;24.91;69.69;97883.91;5110566;28;20195;-56
2023/07/21 04:30:19;;;;;;;5.72;3.40;;;;;;;25.13;69.28;97925.78;5111415;28;20352;-56
2023/07/21 04:32:45;;;;;;;7.13;3.38;;;;;;;25.00;69.16;97899.34;5111404;28;20179;-56
2023/07/21 04:35:10;;;;;;;7.60;3.33;;;;;;;24.93;68.79;97882.69;5111099;28;20175;-56
2023/07/21 04:37:36;;;;;;;7.63;3.97;;;;;;;25.12;68.97;97916.22;5111291;28;20185;-56
2023/07/21 04:40:06;;;;;;;5.30;3.70;;;;;;;25.22;68.66;97923.72;5111253;28;20171;-56
2023/07/21 04:42:32;;;;;;;6.93;3.40;;;;;;;25.04;68.42;97907.69;5111148;28;20225;-56
2023/07/21 04:44:58;;;;;;;10.68;4.05;;;;;;;25.08;68.40;97922.16;5108504;28;20184;-55
2023/07/21 04:47:23;;;;;;;5.95;3.83;;;;;;;25.22;68.27;97927.19;5112082;28;20248;-56
2023/07/21 04:49:50;;;;;;;3.97;3.17;;;;;;;25.11;68.25;97906.66;5112565;28;20185;-56
2023/07/21 04:52:16;;;;;;;9.73;3.92;;;;;;;25.47;67.84;97944.03;5112460;28;20538;-56
2023/07/21 04:54:41;;;;;;;6.95;3.35;;;;;;;25.45;67.46;97924.91;5112425;28;20252;-57
2023/07/21 04:57:07;;;;;;;4.30;3.90;;;;;;;25.45;66.65;97908.19;5112373;28;20274;-56
2023/07/21 04:59:32;;;;;;;6.70;3.63;;;;;;;25.57;66.64;97917.91;5112329;28;20599;-56
2023/07/21 05:01:58;;;;;;;8.38;3.55;;;;;;;25.56;66.53;97908.34;5112298;28;20263;-56
2023/07/21 05:04:23;;;;;;;8.70;3.50;;;;;;;25.80;66.26;97928.81;5112267;28;20187;-56
2023/07/21 05:06:49;;;;;;;7.80;3.42;;;;;;;25.97;65.90;97937.94;5112215;28;20267;-56
2023/07/21 05:09:15;;;;;;;5.50;3.63;;;;;;;25.94;65.61;97930.38;5112236;28;20258;-57
2023/07/21 05:11:41;;;;;;;6.72;3.58;;;;;;;25.98;64.98;97938.72;5112061;28;20286;-56
2023/07/21 05:14:07;;;;;;;5.75;3.47;;;;;;;26.01;64.15;97925.84;5112187;28;20740;-56
2023/07/21 05:16:32;;;;;;;7.53;4.35;;;;;;;26.27;63.94;97962.81;5113543;28;20270;-56
2023/07/21 05:18:58;;;;;;;6.38;3.40;;;;;;;26.21;63.95;97947.75;5114481;28;20177;-56
2023/07/21 05:21:23;;;;;;;4.28;2.95;;;;;;;26.29;64.12;97958.09;5114357;28;20339;-56
2023/07/21 05:23:49;;;;;;;5.63;3.35;;;;;;;26.28;63.66;97943.22;5114437;28;20266;-56
2023/07/21 05:26:16;;;;;;;8.45;3.40;;;;;;;26.42;64.22;97950.03;5114261;28;20582;-56
2023/07/21 05:28:41;;;;;;;5.15;3.70;;;;;;;26.62;63.09;97979.13;5114159;28;20228;-57
2023/07/21 05:31:11;;;;;;;8.65;3.70;;;;;;;26.50;63.22;97952.44;5114285;28;20175;-57
2023/07/21 05:33:36;;;;;;;8.20;3.17;;;;;;;26.57;62.79;97963.84;5114209;28;20228;-57
2023/07/21 05:36:07;;;;;;;6.30;3.63;;;;;;;26.69;63.30;97959.47;5114199;28;20167;-57
2023/07/21 05:38:34;;;;;;;6.55;3.80;;;;;;;26.70;62.61;97945.16;5114189;28;20671;-56
2023/07/21 05:41:00;;;;;;;9.00;3.45;;;;;;;26.94;62.16;97970.06;5113960;28;20175;-57
2023/07/21 05:43:25;;;;;;;7.30;3.53;;;;;;;27.13;61.23;97975.19;5113792;28;20224;-57
2023/07/21 05:45:50;;;;;;;10.32;3.95;;;;;;;27.11;60.81;97945.38;5111311;28;20198;-57
2023/07/21 05:48:16;;;;;;;7.63;3.53;;;;;;;27.21;60.04;97963.47;5111439;28;20183;-57
2023/07/21 05:50:42;;;;;;;4.53;3.35;;;;;;;27.20;58.88;97954.72;5111368;28;20195;-54
2023/07/21 05:53:07;;;;;;;9.45;4.05;;;;;;;27.36;59.15;97971.91;5111511;28;20179;-57
2023/07/21 05:55:32;;;;;;;8.10;4.00;;;;;;;27.28;59.80;97977.53;5111328;28;20191;-57
2023/07/21 05:57:58;;;;;;;8.07;4.00;;;;;;;27.22;59.39;97968.59;5070006;28;20216;-56
2023/07/21 06:00:25;;;;;;;5.55;3.22;;;;;;;27.16;59.71;97950.88;5070691;28;20250;-56
2023/07/21 06:02:51;;;;;;;5.68;3.70;;;;;;;27.39;59.47;97987.41;5070590;28;20568;-56
2023/07/21 06:05:16;;;;;;;6.93;3.83;;;;;;;27.54;58.97;97994.00;5070326;28;20311;-56
2023/07/21 06:07:43;;;;;;;7.20;3.20;;;;;;;27.29;59.13;97958.69;5070579;28;20188;-56
2023/07/21 06:10:12;;;;;;;10.18;3.72;;;;;;;27.52;58.57;97982.75;5070496;28;20271;-56
2023/07/21 06:12:38;;;;;;;7.65;3.97;;;;;;;27.60;58.85;97981.66;5070488;28;20192;-56
2023/07/21 06:15:06;;;;;;;5.95;3.70;;;;;;;27.52;58.05;97964.16;5070455;28;20279;-56
2023/07/21 06:17:32;;;;;;;11.73;4.00;;;;;;;27.88;57.95;98006.69;5086243;28;20670;-56
2023/07/21 06:19:57;;;;;;;6.07;3.63;;;;;;;27.85;57.46;97974.41;5090605;28;20355;-56
2023/07/21 06:22:23;;;;;;;4.10;3.10;;;;;;;27.92;57.00;97989.25;5090403;28;20230;-56
2023/07/21 06:24:48;;;;;;;10.85;3.50;;;;;;;28.07;56.80;97997.66;5090507;28;20175;-56
2023/07/21 06:27:13;;;;;;;5.45;3.30;;;;;;;27.99;56.86;97974.00;5090411;28;20313;-56
2023/07/21 06:29:39;;;;;;;8.85;3.35;;;;;;;28.27;56.49;98006.16;5108114;28;20312;-57
2023/07/21 06:32:05;;;;;;;7.32;3.35;;;;;;;28.22;56.15;97976.75;5112891;28;20179;-57
2023/07/21 06:34:30;;;;;;;8.00;3.90;;;;;;;28.51;55.21;97997.25;5112800;28;20179;-57
2023/07/21 06:36:55;;;;;;;6.55;3.60;;;;;;;28.59;55.89;97999.59;5113100;28;20254;-57
2023/07/21 06:39:22;;;;;;;5.35;3.70;;;;;;;28.70;55.38;98003.31;5113314;28;20175;-56
2023/07/21 06:41:48;;;;;;;5.18;3.75;;;;;;;28.75;55.37;98000.78;5112923;28;20191;-55
2023/07/21 06:44:14;;;;;;;8.57;3.85;;;;;;;28.72;55.62;97972.75;5112971;28;20175;-55
2023/07/21 06:46:42;;;;;;;7.90;3.97;;;;;;;28.83;55.09;97969.28;5112901;28;20254;-56
2023/07/21 06:49:07;;;;;;;7.35;4.07;;;;;;;29.04;55.06;97966.06;5112922;28;20274;-56
2023/07/21 06:51:32;;;;;;;7.10;3.92;;;;;;;29.26;54.84;97996.41;5112523;28;20228;-56
2023/07/21 06:53:58;;;;;;;11.20;3.97;;;;;;;29.28;55.41;97980.19;5112758;28;20316;-56
2023/07/21 06:56:23;;;;;;;19.75;3.65;;;;;;;29.19;55.50;97963.75;5110076;28;20273;-56
2023/07/21 06:58:48;;;;;;;6.30;4.25;;;;;;;29.33;54.91;97965.09;5110343;28;20252;-56
2023/07/21 07:01:14;;;;;;;7.55;3.75;;;;;;;29.45;53.25;97979.22;5110487;28;20217;-56
2023/07/21 07:03:39;;;;;;;6.15;3.53;;;;;;;29.16;53.54;97963.41;5110156;28;20195;-56
2023/07/21 07:06:05;;;;;;;8.23;3.38;;;;;;;29.33;52.70;97991.75;5109803;28;20635;-56
2023/07/21 07:08:30;;;;;;;7.90;3.60;;;;;;;29.20;52.79;97960.03;5109144;28;20176;-56
2023/07/21 07:10:55;;;;;;;7.25;4.05;;;;;;;29.34;52.70;97968.59;5110038;28;20335;-56
2023/07/21 07:13:22;;;;;;;7.07;3.35;;;;;;;29.33;52.00;97965.09;5109825;28;20203;-57
2023/07/21 07:15:53;;;;;;;6.63;3.72;;;;;;;29.45;51.68;97968.56;5109799;28;20231;-57
2023/07/21 07:18:18;;;;;;;8.23;3.50;;;;;;;29.41;51.11;97959.44;5109821;28;20182;-57
2023/07/21 07:20:48;;;;;;;9.45;3.63;;;;;;;29.68;51.07;97981.88;5107346;28;20191;-57
2023/07/21 07:23:14;;;;;;;4.45;3.35;;;;;;;29.80;50.06;97987.19;5109791;28;20297;-57
2023/07/21 07:25:39;;;;;;;6.85;3.63;;;;;;;29.60;50.67;97965.44;5109640;28;20619;-57
2023/07/21 07:28:06;;;;;;;10.43;3.10;;;;;;;29.73;49.19;97976.63;5111514;28;20198;-56
2023/07/21 07:30:34;;;;;;;5.45;3.17;;;;;;;29.71;49.38;97976.09;5112141;28;20214;-57
2023/07/21 07:32:59;;;;;;;8.52;3.55;;;;;;;29.70;50.06;97979.78;5112070;28;20629;-57
2023/07/21 07:35:24;;;;;;;8.77;3.30;;;;;;;29.94;49.97;97988.53;5112022;28;20258;-56
2023/07/21 07:37:50;;;;;;;5.55;3.28;;;;;;;29.96;49.02;97963.22;5111841;28;20178;-56
2023/07/21 07:40:15;;;;;;;5.63;3.45;;;;;;;30.06;48.80;97979.44;5112201;28;20225;-57
2023/07/21 07:42:41;;;;;;;5.07;3.03;;;;;;;30.18;48.50;97979.41;5111824;28;20289;-56
2023/07/21 07:45:06;;;;;;;7.97;3.15;;;;;;;30.25;47.03;97996.09;5111909;28;20603;-56
2023/07/21 07:47:32;;;;;;;4.32;3.45;;;;;;;30.45;47.40;97986.59;5111884;28;20177;-56
2023/07/21 07:49:57;;;;;;;8.50;3.88;;;;;;;30.51;46.74;97990.97;5111892;28;20258;-57
2023/07/21 07:52:23;;;;;;;5.53;3.15;;;;;;;30.55;46.74;97975.25;5111899;28;20186;-56
2023/07/21 07:54:49;;;;;;;5.72;3.20;;;;;;;30.63;46.13;97973.00;5111836;28;20576;-56
2023/07/21 07:57:14;;;;;;;8.23;3.78;;;;;;;30.85;45.91;98007.84;5111601;28;20178;-57
2023/07/21 07:59:40;;;;;;;6.65;3.15;;;;;;;30.62;44.77;97981.25;5111526;28;20566;-56
2023/07/21 08:02:05;;;;;;;7.75;3.50;;;;;;;30.58;46.49;97966.75;5111156;28;20198;-56
2023/07/21 08:04:31;;;;;;;7.85;3.10;;;;;;;30.68;46.83;97975.78;5111550;28;20167;-57
2023/07/21 08:06:56;;;;;;;7.13;3.40;;;;;;;30.76;47.14;97972.72;5111687;28;20627;-57
2023/07/21 08:09:22;;;;;;;6.55;3.75;;;;;;;30.94;45.26;97995.69;5111589;28;20183;-57
2023/07/21 08:11:47;;;;;;;6.18;3.65;;;;;;;31.01;45.69;97997.16;5111213;28;20178;-57
2023/07/21 08:14:13;;;;;;;7.97;3.40;;;;;;;31.12;46.54;97993.56;5111203;28;20254;-56
2023/07/21 08:16:38;;;;;;;6.55;3.60;;;;;;;31.14;45.96;97988.78;5111499;28;20191;-56
2023/07/21 08:19:04;;;;;;;6.88;3.40;;;;;;;31.07;44.71;97969.44;5111168;28;20171;-56
2023/07/21 08:21:29;;;;;;;5.85;3.55;;;;;;;31.29;44.10;98010.44;5115296;28;20202;-56
2023/07/21 08:23:54;;;;;;;7.47;3.58;;;;;;;31.14;45.25;97979.97;5115702;28;20243;-56
2023/07/21 08:26:20;;;;;;;4.75;3.55;;;;;;;31.26;44.77;97994.91;5115710;28;20167;-56
2023/07/21 08:28:46;;;;;;;5.75;3.75;;;;;;;31.25;44.65;97971.84;5115699;28;20179;-56
2023/07/21 08:31:11;;;;;;;5.40;3.47;;;;;;;31.35;44.44;97984.59;5112847;28;20187;-56
2023/07/21 08:33:37;;;;;;;11.88;3.70;;;;;;;31.58;44.47;98005.72;5112905;28;20186;-56
2023/07/21 08:36:05;;;;;;;4.00;3.30;;;;;;;31.64;42.71;98013.59;5112911;28;20336;-56
2023/07/21 08:38:31;;;;;;;8.85;3.65;;;;;;;31.59;42.65;97976.06;5112919;28;20534;-56
2023/07/21 08:41:05;;;;;;;9.00;3.33;;;;;;;31.62;42.59;97975.59;5113234;28;20287;-56
2023/07/21 08:43:31;;;;;;;4.32;2.80;;;;;;;31.79;40.92;98004.97;5112841;28;20187;-56
2023/07/21 08:46:01;;;;;;;5.70;2.80;;;;;;;31.64;41.69;97977.97;5112799;28;20232;-56
2023/07/21 08:48:28;;;;;;;4.72;2.95;;;;;;;31.82;41.77;98002.59;5112626;28;20288;-57
2023/07/21 08:50:57;;;;;;;5.68;3.22;;;;;;;31.84;40.97;97999.69;5112744;28;20306;-57
2023/07/21 08:53:24;;;;;;;8.80;3.28;;;;;;;31.99;41.98;98010.59;5112734;28;20183;-57
2023/07/21 08:55:55;;;;;;;7.30;3.50;;;;;;;31.88;41.43;97980.19;5112667;28;20189;-57
2023/07/21 08:58:21;;;;;;;9.77;3.13;;;;;;;31.90;42.16;98002.19;5112602;28;20677;-57
2023/07/21 09:00:48;;;;;;;3.90;3.30;;;;;;;31.92;42.15;98010.75;5112532;28;20176;-57
2023/07/21 09:03:21;;;;;;;9.95;3.13;;;;;;;31.92;41.50;97996.56;5114445;28;20598;-57
2023/07/21 09:05:47;;;;;;;6.57;3.25;;;;;;;32.04;41.51;98007.94;5114987;28;20665;-57
2023/07/21 09:08:27;;;;;;;4.90;2.78;;;;;;;31.93;39.75;98001.66;5114937;28;20200;-57
2023/07/21 09:10:57;;;;;;;4.35;2.80;;;;;;;32.04;41.21;97998.03;5114863;28;20175;-57
2023/07/21 09:13:23;;;;;;;6.90;3.30;;;;;;;32.15;41.86;97998.97;5114878;28;20187;-57
2023/07/21 09:16:00;;;;;;;7.18;3.20;;;;;;;32.09;40.56;97995.44;5114937;28;20172;-57
2023/07/21 09:18:30;;;;;;;4.50;3.35;;;;;;;32.16;40.27;97973.78;5114825;28;20171;-57
2023/07/21 09:20:56;;;;;;;4.75;3.00;;;;;;;32.32;39.32;97979.09;5114751;28;20200;-57
2023/07/21 09:23:23;;;;;;;3.67;2.95;;;;;;;32.39;39.69;97968.97;5114544;28;20206;-57
2023/07/21 09:25:57;;;;;;;4.63;3.78;;;;;;;32.57;39.36;97992.72;5114728;28;20598;-55
2023/07/21 09:28:42;;;;;;;6.43;3.60;;;;;;;32.64;40.30;97982.59;5112049;28;20183;-55
2023/07/21 09:31:09;;;;;;;3.85;2.95;;;;;;;32.69;38.80;98001.41;5111327;28;20167;-55
2023/07/21 09:33:39;;;;;;;4.47;3.10;;;;;;;32.63;39.99;97988.22;5111709;28;20184;-55
2023/07/21 09:36:09;;;;;;;6.50;2.85;;;;;;;32.67;37.52;98008.91;5112001;28;20171;-55
2023/07/21 09:38:36;;;;;;;5.63;2.92;;;;;;;32.80;38.82;98003.13;5111892;28;20191;-56
2023/07/21 09:41:03;;;;;;;6.50;2.90;;;;;;;32.79;39.24;97974.72;5111925;28;20190;-56
2023/07/21 09:43:30;;;;;;;3.67;3.10;;;;;;;33.05;39.02;97989.91;5111855;28;20349;-56
2023/07/21 09:45:58;;;;;;;5.78;2.92;;;;;;;33.25;39.36;97989.22;5111879;28;20176;-56
2023/07/21 09:48:25;;;;;;;6.65;3.17;;;;;;;33.46;38.99;97996.38;5111664;28;20568;-56
2023/07/21 09:50:50;;;;;;;6.03;3.45;;;;;;;33.52;38.87;97985.38;5111710;28;20171;-57
2023/07/21 09:53:20;;;;;;;6.45;3.33;;;;;;;33.54;37.37;97966.34;5111538;28;20201;-55
2023/07/21 09:55:48;;;;;;;6.03;3.13;;;;;;;33.39;37.90;97950.97;5111568;28;20171;-56
2023/07/21 09:58:16;;;;;;;5.90;2.75;;;;;;;33.56;38.42;97970.38;5051377;28;20734;-56
2023/07/21 10:00:44;;;;;;;6.45;3.35;;;;;;;33.58;38.26;97962.88;5070916;28;20223;-56
2023/07/21 10:03:11;;;;;;;6.38;3.20;;;;;;;33.75;37.72;97984.94;5070748;28;20220;-56
2023/07/21 10:05:39;;;;;;;6.03;3.35;;;;;;;33.69;38.64;97964.53;5070713;28;20283;-57
2023/07/21 10:08:06;;;;;;;3.10;2.60;;;;;;;33.72;38.15;97952.47;5070748;28;20659;-56
2023/07/21 10:10:32;;;;;;;4.30;2.90;;;;;;;33.83;37.85;97957.66;5070717;28;20566;-56
2023/07/21 10:13:04;;;;;;;3.03;2.72;;;;;;;34.08;37.39;97981.88;5070914;28;20289;-56
2023/07/21 10:15:31;;;;;;;3.63;3.15;;;;;;;34.07;37.36;97966.03;5070575;28;20183;-56
2023/07/21 10:18:17;;;;;;;3.55;2.78;;;;;;;34.27;37.77;97979.53;5070421;28;20598;-56
2023/07/21 10:20:52;;;;;;;4.80;3.05;;;;;;;34.11;36.96;97965.25;5070515;28;20275;-56
2023/07/21 10:23:22;;;;;;;6.65;2.95;;;;;;;34.33;37.31;97984.66;5070422;28;20598;-56
2023/07/21 10:25:51;;;;;;;8.77;3.13;;;;;;;34.31;37.19;97967.16;5070572;28;20267;-56
2023/07/21 10:28:22;;;;;;;4.53;3.28;;;;;;;34.50;36.28;97966.38;5075165;28;20219;-56
2023/07/21 10:30:48;;;;;;;7.53;2.97;;;;;;;34.45;34.79;97957.53;5113468;28;20178;-56
2023/07/21 10:33:20;;;;;;;5.28;3.28;;;;;;;34.56;35.63;97964.53;5113418;28;20214;-56
2023/07/21 10:35:47;;;;;;;7.45;3.38;;;;;;;34.52;36.21;97936.56;5113373;27;20224;-55
2023/07/21 10:38:13;;;;;;;6.05;3.28;;;;;;;34.80;35.74;97973.69;5113281;28;20190;-56
2023/07/21 10:40:42;;;;;;;3.60;3.00;;;;;;;34.85;35.82;97977.16;5113233;28;20167;-55
2023/07/21 10:43:08;;;;;;;5.45;3.00;;;;;;;34.96;35.96;97951.88;5113075;28;20210;-56
2023/07/21 10:45:33;;;;;;;2.83;2.63;;;;;;;35.02;34.92;97953.50;5113085;28;20198;-56
2023/07/21 10:48:13;;;;;;;3.88;2.92;;;;;;;35.06;35.39;97943.81;5113060;28;20209;-56
2023/07/21 10:50:40;;;;;;;6.32;3.78;;;;;;;35.24;35.55;97945.94;5112989;28;20171;-56
2023/07/21 10:53:06;;;;;;;4.18;3.00;;;;;;;35.59;35.13;97967.34;5112985;28;20202;-56
2023/07/21 10:55:32;;;;;;;7.15;3.35;;;;;;;35.65;34.34;97946.59;5112925;28;20660;-55
2023/07/21 10:57:57;;;;;;;6.25;2.90;;;;;;;35.67;34.59;97939.84;5112887;27;20288;-56
2023/07/21 11:00:23;;;;;;;6.00;3.10;;;;;;;35.92;34.50;97953.25;5112802;28;20167;-55
2023/07/21 11:02:57;;;;;;;8.10;3.33;;;;;;;35.95;34.56;97941.91;5112852;28;20807;-56
2023/07/21 11:05:22;;;;;;;5.80;3.08;;;;;;;36.12;34.37;97953.13;5112738;28;20191;-56
2023/07/21 11:07:48;;;;;;;5.10;3.00;;;;;;;36.06;35.07;97948.84;5112833;28;20175;-56
2023/07/21 11:10:15;;;;;;;3.60;3.15;;;;;;;36.28;33.86;97951.16;5112763;28;20172;-56
2023/07/21 11:12:40;;;;;;;5.78;3.50;;;;;;;36.20;34.10;97922.91;5112611;28;20183;-56
2023/07/21 11:15:08;;;;;;;7.28;3.17;;;;;;;36.50;34.59;97946.97;5112616;28;20178;-56
2023/07/21 11:17:34;;;;;;;6.72;3.20;;;;;;;36.61;34.32;97945.75;5112531;28;20179;-56
2023/07/21 11:20:06;;;;;;;5.53;3.70;;;;;;;36.49;34.43;97949.94;5112368;28;20167;-56
2023/07/21 11:22:33;;;;;;;5.55;3.08;;;;;;;36.46;34.44;97932.41;5111953;28;20199;-56
2023/07/21 11:25:11;;;;;;;3.92;3.25;;;;;;;36.38;34.51;97945.69;5112253;28;20555;-56
2023/07/21 11:27:44;;;;;;;4.30;3.22;;;;;;;36.24;34.50;97913.19;5112034;28;20604;-56
2023/07/21 11:30:10;;;;;;;5.32;3.67;;;;;;;36.34;35.17;97907.72;5112307;28;20637;-56
2023/07/21 11:32:36;;;;;;;5.65;3.40;;;;;;;36.16;34.75;97907.53;5112137;28;20179;-55